Time;durP1;ratioP1;P1;durP2;ratioP2;P2;SDS_P1;SDS_P2;PMS_P1;PMS_P2;Temp;Humidity;BMP_temperature;BMP_pressure;BME280_temperature;BME280_humidity;BME280_pressure;Samples;Min_cycle;Max_cycle;Signal;HPM_P1;HPM_P2
2022/09/08 00:00:56;;;;;;;8.25;7.00;;;16.70;99.90;;;;;;4973018;28;20082;-74
2022/09/08 00:03:26;;;;;;;7.95;7.15;;;16.70;99.90;;;;;;4973315;28;20059;-75
2022/09/08 00:06:06;;;;;;;10.85;7.50;;;16.70;99.90;;;;;;4973525;28;20054;-75
2022/09/08 00:08:32;;;;;;;10.60;6.90;;;16.30;99.90;;;;;;4976856;28;20058;-75
2022/09/08 00:11:01;;;;;;;10.30;7.97;;;16.70;99.90;;;;;;4976535;28;20051;-75
2022/09/08 00:13:29;;;;;;;8.13;6.93;;;16.70;99.90;;;;;;4959160;28;20452;-75
2022/09/08 00:15:55;;;;;;;10.40;6.50;;;16.70;99.90;;;;;;4976439;28;20050;-74
2022/09/08 00:18:23;;;;;;;7.55;6.50;;;16.70;99.90;;;;;;4976440;28;20050;-75
2022/09/08 00:20:49;;;;;;;9.23;8.25;;;16.70;99.90;;;;;;4976475;28;20094;-75
2022/09/08 00:23:15;;;;;;;11.65;8.90;;;16.70;99.90;;;;;;4976450;28;20046;-74
2022/09/08 00:25:40;;;;;;;10.05;8.90;;;17.00;99.90;;;;;;4976279;28;20459;-75
2022/09/08 00:28:06;;;;;;;11.73;9.85;;;16.70;99.90;;;;;;4976611;28;20470;-74
2022/09/08 00:30:33;;;;;;;12.68;9.43;;;16.70;99.90;;;;;;4975702;28;20082;-75
2022/09/08 00:32:59;;;;;;;11.25;8.18;;;16.70;99.90;;;;;;4976537;28;20043;-74
2022/09/08 00:35:25;;;;;;;13.02;9.02;;;16.70;99.90;;;;;;4975715;28;20042;-75
2022/09/08 00:37:52;;;;;;;13.63;9.93;;;16.70;99.90;;;;;;4975531;28;20058;-75
2022/09/08 00:40:19;;;;;;;14.52;10.35;;;16.70;99.90;;;;;;4975904;28;20047;-74
2022/09/08 00:42:45;;;;;;;10.98;9.25;;;16.60;99.90;;;;;;4976016;28;20047;-74
2022/09/08 00:45:15;;;;;;;15.93;11.20;;;16.60;99.90;;;;;;4976338;28;20501;-74
2022/09/08 00:48:16;;;;;;;18.20;12.10;;;16.50;99.90;;;;;;4975789;28;20047;-75
2022/09/08 00:50:44;;;;;;;15.05;10.80;;;16.50;99.90;;;;;;4964716;28;20447;-74
2022/09/08 00:53:13;;;;;;;13.38;11.48;;;16.40;99.90;;;;;;4975760;28;20054;-74
2022/09/08 00:55:39;;;;;;;16.35;11.23;;;16.40;99.90;;;;;;4975506;28;20043;-75
2022/09/08 00:58:06;;;;;;;14.63;9.88;;;16.40;99.90;;;;;;4975615;28;20043;-74
2022/09/08 01:00:36;;;;;;;12.75;10.90;;;16.40;99.90;;;;;;4975497;28;20459;-75
2022/09/08 01:03:05;;;;;;;13.35;11.02;;;16.40;99.90;;;;;;4975830;28;20105;-74
2022/09/08 01:05:44;;;;;;;14.88;10.93;;;16.40;99.90;;;;;;4975543;28;20078;-74
2022/09/08 01:14:11;;;;;;;19.17;13.02;;;16.30;99.90;;;;;;4889566;28;20594;-75
2022/09/08 01:16:42;;;;;;;17.17;13.07;;;16.30;99.90;;;;;;4975361;28;20047;-74
2022/09/08 01:19:16;;;;;;;15.93;12.52;;;16.30;99.90;;;;;;4974367;28;20054;-75
2022/09/08 01:21:57;;;;;;;15.77;12.63;;;16.30;99.90;;;;;;4975762;28;20043;-74
2022/09/08 01:24:40;;;;;;;14.13;11.57;;;16.30;99.90;;;;;;4975132;28;20053;-74
2022/09/08 01:27:11;;;;;;;;;;;16.30;99.90;;;;;;4974970;28;20053;-75
2022/09/08 01:29:40;;;;;;;19.85;13.77;;;16.20;99.90;;;;;;4975027;28;19977;-75
2022/09/08 01:32:09;;;;;;;16.65;12.88;;;16.20;99.90;;;;;;4974889;28;20506;-75
2022/09/08 01:34:40;;;;;;;15.98;13.13;;;16.30;99.90;;;;;;4973868;28;20042;-74
2022/09/08 01:37:05;;;;;;;21.67;16.45;;;16.30;99.90;;;;;;4975286;28;20138;-74
2022/09/08 01:39:31;;;;;;;22.88;13.95;;;16.30;99.90;;;;;;4975388;28;20493;-74
2022/09/08 01:41:57;;;;;;;21.27;14.25;;;16.30;99.90;;;;;;4957636;28;20486;-74
2022/09/08 01:44:23;;;;;;;22.20;15.93;;;16.30;99.90;;;;;;4975080;28;20043;-74
2022/09/08 01:46:49;;;;;;;22.10;16.83;;;16.30;99.90;;;;;;4974462;28;20544;-74
2022/09/08 01:49:14;;;;;;;18.95;14.73;;;16.30;99.90;;;;;;4974811;28;20076;-74
2022/09/08 01:51:40;;;;;;;23.40;16.88;;;16.30;99.90;;;;;;4974640;28;20500;-74
2022/09/08 01:54:06;;;;;;;22.17;17.73;;;16.30;99.90;;;;;;4974667;28;20130;-74
2022/09/08 01:56:32;;;;;;;22.55;16.88;;;16.40;99.90;;;;;;4974886;28;20046;-74
2022/09/08 01:58:58;;;;;;;21.73;16.65;;;16.40;99.90;;;;;;4974121;28;20557;-75
2022/09/08 02:01:24;;;;;;;23.48;16.70;;;16.40;99.90;;;;;;4974574;28;20047;-74
2022/09/08 02:03:49;;;;;;;19.15;13.82;;;16.50;99.90;;;;;;4974643;28;20485;-75
2022/09/08 02:06:15;;;;;;;23.13;18.05;;;16.50;99.90;;;;;;4974380;28;20070;-75
2022/09/08 02:08:43;;;;;;;25.50;18.17;;;16.50;99.90;;;;;;4974672;28;20072;-74
2022/09/08 02:11:09;;;;;;;28.83;20.05;;;16.50;99.90;;;;;;4974392;28;20116;-75
2022/09/08 02:13:35;;;;;;;28.83;20.83;;;16.60;99.90;;;;;;4973797;28;20497;-75
2022/09/08 02:16:09;;;;;;;37.50;24.67;;;16.60;99.90;;;;;;4974225;28;20101;-75
2022/09/08 02:18:35;;;;;;;34.05;23.38;;;16.70;99.90;;;;;;4974134;28;20050;-74
2022/09/08 02:21:11;;;;;;;29.33;22.85;;;16.70;99.90;;;;;;4973974;28;20042;-75
2022/09/08 02:23:40;;;;;;;33.95;23.73;;;16.70;99.90;;;;;;4974126;28;20051;-74
2022/09/08 02:26:07;;;;;;;34.25;23.58;;;16.70;99.90;;;;;;4974251;28;20102;-74
2022/09/08 02:28:33;;;;;;;36.90;25.25;;;16.80;99.90;;;;;;4974431;28;20145;-75
2022/09/08 02:31:01;;;;;;;35.20;25.42;;;16.80;99.90;;;;;;4973753;28;20479;-74
2022/09/08 02:33:29;;;;;;;38.40;27.25;;;16.80;99.90;;;;;;4973694;28;20047;-74
2022/09/08 02:35:54;;;;;;;31.42;22.67;;;16.90;99.90;;;;;;4973816;28;20134;-74
2022/09/08 02:38:22;;;;;;;38.10;27.10;;;16.90;99.90;;;;;;4973760;28;20141;-75
2022/09/08 02:40:48;;;;;;;37.92;26.25;;;16.90;99.90;;;;;;4974205;28;20054;-75
2022/09/08 02:43:13;;;;;;;33.92;24.38;;;16.90;99.90;;;;;;4974018;28;20125;-74
2022/09/08 02:45:40;;;;;;;32.38;24.55;;;16.90;99.90;;;;;;4976008;28;20059;-75
2022/09/08 02:48:06;;;;;;;31.45;23.80;;;16.90;99.90;;;;;;4974216;28;20126;-74
2022/09/08 02:50:32;;;;;;;37.53;24.55;;;16.90;99.90;;;;;;4973750;28;20454;-75
2022/09/08 02:52:58;;;;;;;37.30;25.92;;;17.00;99.90;;;;;;4973715;28;20093;-74
2022/09/08 02:55:24;;;;;;;38.08;27.75;;;16.90;99.90;;;;;;4973673;28;20050;-74
2022/09/08 02:57:50;;;;;;;41.45;27.55;;;17.00;99.90;;;;;;4973637;28;20051;-75
2022/09/08 03:00:18;;;;;;;43.58;28.77;;;17.00;99.90;;;;;;4973638;28;20047;-74
2022/09/08 03:02:44;;;;;;;38.80;26.63;;;17.00;99.90;;;;;;4974093;28;20069;-75
2022/09/08 03:05:10;;;;;;;38.72;26.73;;;17.00;99.90;;;;;;4973869;28;20471;-74
2022/09/08 03:07:37;;;;;;;36.97;27.15;;;17.00;99.90;;;;;;4973609;28;20134;-74
2022/09/08 03:10:04;;;;;;;37.92;26.13;;;16.90;99.90;;;;;;4973559;28;20047;-74
2022/09/08 03:12:30;;;;;;;42.42;27.98;;;16.90;99.90;;;;;;4956578;28;20056;-74
2022/09/08 03:14:56;;;;;;;35.15;25.63;;;16.90;99.90;;;;;;4974041;28;20059;-74
2022/09/08 03:17:22;;;;;;;39.95;27.52;;;16.90;99.90;;;;;;4973483;28;20484;-75
2022/09/08 03:19:49;;;;;;;44.75;28.27;;;16.90;99.90;;;;;;4973426;28;20045;-74
2022/09/08 03:22:16;;;;;;;41.90;29.02;;;16.90;99.90;;;;;;4972676;28;20078;-75
2022/09/08 03:24:42;;;;;;;45.95;29.60;;;16.90;99.90;;;;;;4973647;28;20043;-74
2022/09/08 03:27:08;;;;;;;36.00;23.50;;;16.90;99.90;;;;;;4973403;28;20061;-75
2022/09/08 03:29:34;;;;;;;33.63;26.42;;;16.90;99.90;;;;;;4973332;28;20054;-74
2022/09/08 03:32:00;;;;;;;39.00;26.77;;;16.90;99.90;;;;;;4973300;28;20046;-75
2022/09/08 03:34:26;;;;;;;38.17;28.10;;;16.90;99.90;;;;;;4956218;28;20055;-75
2022/09/08 03:36:52;;;;;;;40.55;28.92;;;16.90;99.90;;;;;;4973215;28;20538;-75
2022/09/08 03:39:19;;;;;;;45.65;30.88;;;17.00;99.90;;;;;;4973282;28;20053;-74
2022/09/08 03:41:45;;;;;;;34.47;24.50;;;16.90;99.90;;;;;;4975066;28;20047;-75
2022/09/08 03:44:11;;;;;;;41.50;26.85;;;16.90;99.90;;;;;;4977077;28;20540;-75
2022/09/08 03:46:37;;;;;;;42.60;26.90;;;16.90;99.90;;;;;;4976629;28;20059;-75
2022/09/08 03:49:04;;;;;;;35.33;25.60;;;17.00;99.90;;;;;;4960158;28;20150;-75
2022/09/08 03:51:30;;;;;;;43.22;29.77;;;16.90;99.90;;;;;;4976900;28;20129;-75
2022/09/08 03:56:43;;;;;;;45.53;26.85;;;16.90;99.90;;;;;;4976883;28;20089;-75
2022/09/08 03:59:09;;;;;;;40.17;29.48;;;16.90;99.90;;;;;;4976768;28;20043;-74
2022/09/08 04:01:35;;;;;;;35.67;25.42;;;16.90;99.90;;;;;;4976981;28;20043;-74
2022/09/08 04:04:02;;;;;;;39.40;25.75;;;16.90;99.90;;;;;;4976597;28;20096;-74
2022/09/08 04:06:30;;;;;;;40.28;26.88;;;17.00;99.90;;;;;;4976783;28;20057;-75
2022/09/08 04:08:56;;;;;;;39.70;27.48;;;16.90;99.90;;;;;;4959958;28;20062;-75
2022/09/08 04:11:22;;;;;;;37.25;26.90;;;17.00;99.90;;;;;;4976426;28;20130;-74
2022/09/08 04:13:50;;;;;;;44.65;29.67;;;16.90;99.90;;;;;;4976666;28;20046;-75
2022/09/08 04:16:16;;;;;;;45.15;30.98;;;16.90;99.90;;;;;;4976772;28;20057;-74
2022/09/08 04:18:43;;;;;;;37.58;25.70;;;16.90;99.90;;;;;;4959953;28;20402;-75
2022/09/08 04:21:10;;;;;;;40.72;27.85;;;16.90;99.90;;;;;;4976406;28;20047;-75
2022/09/08 04:23:37;;;;;;;42.10;27.35;;;16.90;99.90;;;;;;4976353;28;20046;-74
2022/09/08 04:26:07;;;;;;;45.20;30.60;;;16.90;99.90;;;;;;4976821;28;20051;-75
2022/09/08 04:28:34;;;;;;;42.72;28.52;;;17.00;99.90;;;;;;4976775;28;20054;-75
2022/09/08 04:31:07;;;;;;;41.58;28.25;;;17.00;99.90;;;;;;4976354;28;20474;-75
2022/09/08 04:33:33;;;;;;;41.08;29.50;;;17.00;99.90;;;;;;4976135;28;20046;-75
2022/09/08 04:36:09;;;;;;;36.83;26.13;;;17.00;99.90;;;;;;4976143;28;20055;-75
2022/09/08 04:38:35;;;;;;;35.40;24.95;;;17.00;99.90;;;;;;4976105;28;20055;-74
2022/09/08 04:41:09;;;;;;;38.10;28.02;;;17.00;99.90;;;;;;4975980;28;20046;-75
2022/09/08 04:43:35;;;;;;;42.90;29.63;;;17.10;99.90;;;;;;4975902;28;20077;-74
2022/09/08 04:46:07;;;;;;;45.72;31.35;;;17.10;99.90;;;;;;4975391;28;20153;-74
2022/09/08 04:48:35;;;;;;;44.25;30.90;;;17.10;99.90;;;;;;4976101;28;20230;-74
2022/09/08 04:51:01;;;;;;;42.83;28.98;;;17.10;99.90;;;;;;4976373;28;20127;-74
2022/09/08 04:53:30;;;;;;;43.90;31.17;;;17.10;99.90;;;;;;4975051;28;20440;-75
2022/09/08 04:55:56;;;;;;;48.28;31.13;;;17.10;99.90;;;;;;4975695;28;20046;-75
2022/09/08 04:58:22;;;;;;;53.75;32.47;;;17.00;99.90;;;;;;4958690;28;20046;-75
2022/09/08 05:00:48;;;;;;;43.38;30.33;;;17.00;99.90;;;;;;4976009;28;20051;-74
2022/09/08 05:03:14;;;;;;;42.53;30.70;;;17.00;99.90;;;;;;4975706;28;20105;-74
2022/09/08 05:05:39;;;;;;;43.67;29.98;;;17.00;99.90;;;;;;4975650;28;20046;-75
2022/09/08 05:08:05;;;;;;;44.78;30.50;;;16.90;99.90;;;;;;4975277;28;20078;-74
2022/09/08 05:10:32;;;;;;;43.90;29.73;;;16.90;99.90;;;;;;4975477;28;20053;-75
2022/09/08 05:12:58;;;;;;;43.08;31.38;;;16.90;99.90;;;;;;4975603;28;20065;-75
2022/09/08 05:15:24;;;;;;;39.78;28.02;;;16.90;99.90;;;;;;4975304;28;20516;-75
2022/09/08 05:17:50;;;;;;;46.33;29.88;;;16.90;99.90;;;;;;4974250;28;20550;-75
2022/09/08 05:20:16;;;;;;;40.30;27.10;;;16.90;99.90;;;;;;4975361;28;20126;-74
2022/09/08 05:22:42;;;;;;;36.72;27.13;;;16.90;99.90;;;;;;4975287;28;20459;-74
2022/09/08 05:25:08;;;;;;;37.67;26.27;;;17.00;99.90;;;;;;4975210;28;20050;-74
2022/09/08 05:27:34;;;;;;;38.15;26.63;;;17.00;99.90;;;;;;4975175;28;20062;-74
2022/09/08 05:30:00;;;;;;;41.58;28.70;;;17.00;99.90;;;;;;4975137;28;20042;-74
2022/09/08 05:32:26;;;;;;;34.88;24.45;;;17.00;99.90;;;;;;4974881;28;20061;-73
2022/09/08 05:34:51;;;;;;;46.63;29.33;;;17.00;99.90;;;;;;4974878;28;20046;-74
2022/09/08 05:37:17;;;;;;;44.67;28.17;;;17.00;99.90;;;;;;4958140;28;20057;-74
2022/09/08 05:39:43;;;;;;;43.55;31.60;;;17.10;99.90;;;;;;4975257;28;20039;-74
2022/09/08 05:42:08;;;;;;;48.20;31.42;;;17.10;99.90;;;;;;4974991;28;20475;-74
2022/09/08 05:44:34;;;;;;;40.30;26.38;;;17.10;99.90;;;;;;4974879;28;20057;-74
2022/09/08 05:47:00;;;;;;;39.00;28.02;;;17.10;99.90;;;;;;4974915;28;20059;-74
2022/09/08 05:49:25;;;;;;;40.30;27.95;;;17.10;99.90;;;;;;4974560;28;20058;-74
2022/09/08 05:51:52;;;;;;;36.30;25.38;;;17.10;99.90;;;;;;4975099;28;20393;-74
2022/09/08 05:54:22;;;;;;;34.78;24.75;;;17.20;99.90;;;;;;4975348;28;20058;-75
2022/09/08 05:56:48;;;;;;;40.50;27.15;;;17.30;99.90;;;;;;4975263;28;20049;-75
2022/09/08 05:59:14;;;;;;;34.92;25.23;;;17.30;99.90;;;;;;4974660;28;20050;-74
2022/09/08 06:01:40;;;;;;;39.97;27.52;;;17.30;99.90;;;;;;4974794;28;20069;-75
2022/09/08 06:04:06;;;;;;;39.13;26.73;;;17.30;99.90;;;;;;4974617;28;20039;-75
2022/09/08 06:06:33;;;;;;;42.70;29.15;;;17.40;99.90;;;;;;4975115;28;20110;-74
2022/09/08 06:08:59;;;;;;;42.33;28.60;;;17.40;99.90;;;;;;4974856;28;20459;-77
2022/09/08 06:11:26;;;;;;;37.53;25.23;;;17.50;99.90;;;;;;4974786;28;20042;-75
2022/09/08 06:13:53;;;;;;;34.53;24.33;;;17.50;99.90;;;;;;4974914;28;20138;-74
2022/09/08 06:16:19;;;;;;;39.55;26.00;;;17.40;99.90;;;;;;4974396;28;20572;-76
2022/09/08 06:18:46;;;;;;;42.53;27.35;;;17.50;99.90;;;;;;4974246;28;20089;-75
2022/09/08 06:21:13;;;;;;;39.72;27.70;;;17.50;99.90;;;;;;4974235;28;20058;-75
2022/09/08 06:23:38;;;;;;;35.50;26.38;;;17.50;99.90;;;;;;4974269;28;20148;-75
2022/09/08 06:26:26;;;;;;;33.67;24.60;;;17.50;99.90;;;;;;4973946;28;20050;-76
2022/09/08 06:29:06;;;;;;;35.03;25.45;;;17.50;99.90;;;;;;4974044;28;20050;-75
2022/09/08 06:31:38;;;;;;;44.13;30.73;;;17.50;99.90;;;;;;4974332;28;20125;-74
2022/09/08 06:34:15;;;;;;;41.38;28.27;;;17.50;99.90;;;;;;4974293;28;20050;-74
2022/09/08 06:36:49;;;;;;;44.97;28.80;;;17.40;99.90;;;;;;4957418;28;20051;-75
2022/09/08 06:39:47;;;;;;;41.92;28.75;;;17.40;99.90;;;;;;4973831;28;20050;-75
2022/09/08 06:42:20;;;;;;;46.80;32.45;;;17.40;99.90;;;;;;4954491;28;20063;-75
2022/09/08 06:44:51;;;;;;;46.47;33.72;;;17.40;99.90;;;;;;4956539;28;20053;-74
2022/09/08 06:47:21;;;;;;;49.97;32.78;;;17.40;99.90;;;;;;4973883;28;20065;-75
2022/09/08 06:49:48;;;;;;;37.50;27.50;;;17.50;99.90;;;;;;4974433;28;20137;-74
2022/09/08 06:52:19;;;;;;;37.47;26.75;;;17.50;99.90;;;;;;4972553;28;20047;-74
2022/09/08 06:55:09;;;;;;;43.08;32.15;;;17.50;99.90;;;;;;4973836;28;20047;-75
2022/09/08 06:57:48;;;;;;;37.60;27.23;;;17.50;99.90;;;;;;4973530;28;20519;-75
2022/09/08 07:00:23;;;;;;;44.00;31.42;;;17.60;99.90;;;;;;4956677;28;20079;-74
2022/09/08 07:02:52;;;;;;;46.20;32.47;;;17.60;99.90;;;;;;4973591;28;20043;-75
2022/09/08 07:05:55;;;;;;;35.00;24.20;;;17.60;99.90;;;;;;4973906;28;20095;-75
2022/09/08 07:08:46;;;;;;;41.55;29.15;;;17.60;99.90;;;;;;4973867;28;20054;-74
2022/09/08 07:11:15;;;;;;;44.00;31.05;;;17.60;99.90;;;;;;4963104;28;20059;-74
2022/09/08 07:14:15;;;;;;;42.85;30.80;;;17.60;99.90;;;;;;4973068;28;20506;-74
2022/09/08 07:16:49;;;;;;;45.05;31.48;;;17.60;99.90;;;;;;4974909;28;20138;-73
2022/09/08 07:19:49;;;;;;;44.40;32.10;;;17.60;99.90;;;;;;4977224;28;20112;-72
2022/09/08 07:22:28;;;;;;;44.28;32.47;;;17.60;99.90;;;;;;4976785;28;20401;-72
2022/09/08 07:25:06;;;;;;;43.63;29.65;;;17.50;99.90;;;;;;4977773;28;20120;-71
2022/09/08 07:27:32;;;;;;;45.75;30.60;;;17.50;99.90;;;;;;4977312;28;20051;-71
2022/09/08 07:30:00;;;;;;;48.65;29.92;;;17.50;99.90;;;;;;4977648;28;20112;-71
2022/09/08 07:32:30;;;;;;;47.35;31.33;;;17.50;99.90;;;;;;4960162;28;20364;-71
2022/09/08 07:35:23;;;;;;;45.40;30.73;;;17.40;99.90;;;;;;4977226;28;20084;-71
2022/09/08 07:37:51;;;;;;;43.97;30.48;;;17.40;99.90;;;;;;4959940;28;20348;-71
2022/09/08 07:40:21;;;;;;;38.72;26.38;;;17.40;99.90;;;;;;4975917;28;20521;-71
2022/09/08 07:42:58;;;;;;;43.17;28.88;;;17.40;99.90;;;;;;4977197;28;20126;-71
2022/09/08 07:45:48;;;;;;;44.20;30.05;;;17.30;99.90;;;;;;4976873;28;20138;-71
2022/09/08 07:48:30;;;;;;;39.67;27.90;;;17.30;99.90;;;;;;4977040;28;20051;-71
2022/09/08 07:51:18;;;;;;;42.20;28.65;;;17.30;99.90;;;;;;4977289;28;20062;-72
2022/09/08 07:54:10;;;;;;;43.60;26.50;;;17.30;99.90;;;;;;4977365;28;20050;-72
2022/09/08 07:56:39;;;;;;;38.80;26.05;;;17.20;99.90;;;;;;4975432;28;20138;-72
2022/09/08 07:59:17;;;;;;;41.67;24.08;;;17.20;99.90;;;;;;4976709;28;20054;-72
2022/09/08 08:02:08;;;;;;;39.72;24.33;;;17.20;99.90;;;;;;4960334;28;20427;-72
2022/09/08 08:04:34;;;;;;;41.20;25.45;;;17.20;99.90;;;;;;4977457;28;20090;-72
2022/09/08 08:07:08;;;;;;;35.90;24.05;;;17.20;99.90;;;;;;4976747;28;20113;-72
2022/09/08 08:09:51;;;;;;;41.00;28.00;;;17.20;99.90;;;;;;4976773;28;20129;-73
2022/09/08 08:12:17;;;;;;;38.22;25.67;;;17.20;99.90;;;;;;4976488;28;20085;-72
2022/09/08 08:15:06;;;;;;;35.30;23.67;;;17.20;99.90;;;;;;4976493;28;20126;-73
2022/09/08 08:17:38;;;;;;;34.15;23.63;;;17.30;99.90;;;;;;4976755;28;20126;-72
2022/09/08 08:20:50;;;;;;;40.97;25.85;;;17.30;99.90;;;;;;4976428;28;20105;-72
2022/09/08 08:23:25;;;;;;;35.05;23.40;;;17.30;99.90;;;;;;4971357;28;20078;-72
2022/09/08 08:25:53;;;;;;;31.23;22.70;;;17.40;99.90;;;;;;4976686;28;20126;-73
2022/09/08 08:28:21;;;;;;;30.60;22.77;;;17.50;99.90;;;;;;4975852;28;20050;-77
2022/09/08 08:31:12;;;;;;;34.67;23.55;;;17.50;99.90;;;;;;4975499;28;20051;-77
2022/09/08 08:33:44;;;;;;;34.65;22.98;;;17.50;99.90;;;;;;4959360;28;20063;-77
2022/09/08 08:36:13;;;;;;;36.50;23.17;;;17.60;99.90;;;;;;4974654;28;20497;-76
2022/09/08 08:38:44;;;;;;;35.10;23.15;;;17.60;99.90;;;;;;4975663;28;20046;-76
2022/09/08 08:41:33;;;;;;;29.75;21.83;;;17.60;99.90;;;;;;4976206;28;20057;-76
2022/09/08 08:44:14;;;;;;;40.03;24.23;;;17.70;99.90;;;;;;4976160;28;20080;-77
2022/09/08 08:47:15;;;;;;;35.90;24.60;;;17.70;99.90;;;;;;4975370;28;20137;-76
2022/09/08 08:49:49;;;;;;;35.03;23.65;;;17.80;99.90;;;;;;4975842;28;20047;-76
2022/09/08 08:52:29;;;;;;;37.17;24.50;;;17.80;99.90;;;;;;4976359;28;20043;-76
2022/09/08 08:55:25;;;;;;;36.95;24.27;;;17.80;99.90;;;;;;4975833;28;20495;-76
2022/09/08 08:58:06;;;;;;;36.78;23.77;;;17.80;99.90;;;;;;4959293;28;20053;-76
2022/09/08 09:00:53;;;;;;;35.28;23.13;;;17.80;99.90;;;;;;4959202;28;20175;-76
2022/09/08 09:03:29;;;;;;;32.00;22.55;;;17.80;99.90;;;;;;4975950;28;20043;-76
2022/09/08 09:06:06;;;;;;;27.98;19.70;;;17.80;99.90;;;;;;4976188;28;20102;-76
2022/09/08 09:08:50;;;;;;;35.60;23.30;;;17.80;99.90;;;;;;4975603;28;20403;-76
2022/09/08 09:11:33;;;;;;;26.33;20.02;;;17.90;99.90;;;;;;4975813;28;20040;-76
2022/09/08 09:14:17;;;;;;;;;;;17.90;99.90;;;;;;4959000;28;20053;-76
2022/09/08 09:16:57;;;;;;;29.80;21.17;;;17.90;99.90;;;;;;4975413;28;19922;-76
2022/09/08 09:19:49;;;;;;;27.55;19.45;;;17.90;99.90;;;;;;4975630;28;20043;-76
2022/09/08 09:22:54;;;;;;;26.48;19.63;;;17.90;99.90;;;;;;4958670;28;20058;-76
2022/09/08 09:25:28;;;;;;;25.85;17.67;;;17.90;99.90;;;;;;4974547;28;20054;-76
2022/09/08 09:28:06;;;;;;;22.42;17.00;;;17.90;99.90;;;;;;4975368;28;20126;-77
2022/09/08 09:30:40;;;;;;;19.00;15.25;;;17.90;99.90;;;;;;4958246;28;20047;-77
2022/09/08 09:33:38;;;;;;;23.02;15.48;;;17.90;99.90;;;;;;4975223;28;20130;-76
2022/09/08 09:36:32;;;;;;;24.00;16.45;;;18.00;99.90;;;;;;4975502;28;20090;-77
2022/09/08 09:39:19;;;;;;;21.90;15.00;;;18.00;99.90;;;;;;4974407;28;20348;-75
2022/09/08 09:42:15;;;;;;;16.20;11.57;;;18.00;99.90;;;;;;4974827;28;20070;-77
2022/09/08 09:44:50;;;;;;;13.68;10.80;;;18.10;99.90;;;;;;4974825;28;20049;-78
2022/09/08 09:47:18;;;;;;;14.23;9.52;;;18.10;99.90;;;;;;4974817;28;20067;-78
2022/09/08 09:50:14;;;;;;;12.23;9.25;;;18.10;99.90;;;;;;4974643;28;20494;-78
2022/09/08 09:53:10;;;;;;;11.07;8.65;;;18.10;99.90;;;;;;4974362;28;20058;-77
2022/09/08 09:55:53;;;;;;;15.43;8.13;;;18.10;99.90;;;;;;4974341;28;20182;-78
2022/09/08 09:58:34;;;;;;;12.55;8.38;;;18.20;99.90;;;;;;4973583;28;20043;-73
2022/09/08 10:01:09;;;;;;;11.57;7.97;;;18.20;99.90;;;;;;4974286;28;20057;-72
2022/09/08 10:03:49;;;;;;;9.93;7.68;;;18.20;99.90;;;;;;4973559;28;20174;-72
2022/09/08 10:06:27;;;;;;;11.88;8.25;;;18.30;99.90;;;;;;4974276;28;20046;-72
2022/09/08 10:09:24;;;;;;;14.25;8.93;;;18.30;99.90;;;;;;4974553;28;20055;-73
2022/09/08 10:12:01;;;;;;;12.48;7.55;;;18.30;99.90;;;;;;4974067;28;20054;-73
2022/09/08 10:14:59;;;;;;;14.73;7.75;;;18.30;99.90;;;;;;4974081;28;20117;-72
2022/09/08 10:17:37;;;;;;;7.90;6.47;;;18.20;99.90;;;;;;4974545;28;20054;-72
2022/09/08 10:20:17;;;;;;;6.35;5.30;;;18.30;99.90;;;;;;4974131;28;20057;-72
2022/09/08 10:23:01;;;;;;;8.88;5.85;;;18.20;99.90;;;;;;4974336;28;20444;-73
2022/09/08 10:25:45;;;;;;;8.80;6.20;;;18.20;99.90;;;;;;4974234;28;20089;-72
2022/09/08 10:28:26;;;;;;;;;;;18.20;99.90;;;;;;4974638;28;20055;-72
2022/09/08 10:31:01;;;;;;;7.43;5.82;;;18.10;99.90;;;;;;4973733;28;20376;-73
2022/09/08 10:33:55;;;;;;;6.57;5.00;;;18.20;99.90;;;;;;4973959;28;20086;-73
2022/09/08 10:36:51;;;;;;;8.43;5.43;;;18.20;99.90;;;;;;4974235;28;20043;-72
2022/09/08 10:39:47;;;;;;;5.25;4.35;;;18.20;99.90;;;;;;4973707;28;20050;-72
2022/09/08 10:42:38;;;;;;;7.30;4.82;;;18.30;99.90;;;;;;4973549;28;20050;-73
2022/09/08 10:45:16;;;;;;;5.60;4.78;;;18.30;99.90;;;;;;4973752;28;20078;-73
2022/09/08 10:47:55;;;;;;;7.05;4.70;;;18.40;99.90;;;;;;4973947;28;20379;-73
2022/09/08 10:50:28;;;;;;;5.25;4.65;;;18.40;99.90;;;;;;4973478;28;20058;-73
2022/09/08 10:53:33;;;;;;;9.32;5.32;;;18.30;99.90;;;;;;4973454;28;20054;-72
2022/09/08 10:56:21;;;;;;;4.18;3.45;;;18.30;99.90;;;;;;4973517;28;20077;-72
2022/09/08 10:58:52;;;;;;;4.25;3.22;;;18.30;99.90;;;;;;4973389;28;20050;-72
2022/09/08 11:01:30;;;;;;;5.07;3.47;;;18.20;99.90;;;;;;4973483;28;20053;-72
2022/09/08 11:04:18;;;;;;;3.90;2.83;;;18.20;99.90;;;;;;4972392;28;20058;-72
2022/09/08 11:07:21;;;;;;;4.80;3.05;;;18.20;99.90;;;;;;4972212;28;20171;-71
2022/09/08 11:09:47;;;;;;;;;;;18.10;99.90;;;;;;4950652;28;20113;-72
2022/09/08 11:12:12;;;;;;;6.45;2.83;;;18.10;99.90;;;;;;4972882;28;19926;-72
2022/09/08 11:15:16;;;;;;;6.50;2.70;;;18.20;99.90;;;;;;4972902;28;20117;-71
2022/09/08 11:17:47;;;;;;;3.70;2.40;;;18.10;99.90;;;;;;4973266;28;20137;-72
2022/09/08 11:20:15;;;;;;;4.03;1.95;;;18.10;99.90;;;;;;4973002;28;20235;-71
2022/09/08 11:23:15;;;;;;;3.70;2.33;;;18.10;99.90;;;;;;4972979;28;20054;-72
2022/09/08 11:26:02;;;;;;;4.45;2.20;;;18.10;99.90;;;;;;4962399;28;20058;-72
2022/09/08 11:29:05;;;;;;;3.25;1.73;;;18.10;99.90;;;;;;4973089;28;20050;-71
2022/09/08 11:31:54;;;;;;;2.83;2.10;;;18.00;99.90;;;;;;4973294;28;20085;-71
2022/09/08 11:34:38;;;;;;;2.50;2.10;;;18.00;99.90;;;;;;4973283;28;20057;-72
2022/09/08 11:37:30;;;;;;;6.10;2.58;;;18.00;99.90;;;;;;4973435;28;20050;-72
2022/09/08 11:40:13;;;;;;;3.38;1.92;;;18.00;99.90;;;;;;4973382;28;20097;-71
2022/09/08 11:43:01;;;;;;;3.25;2.05;;;18.00;99.90;;;;;;4973230;28;20130;-72
2022/09/08 11:45:56;;;;;;;4.20;1.95;;;18.00;99.90;;;;;;4973258;28;20043;-71
2022/09/08 11:48:41;;;;;;;3.83;1.90;;;17.90;99.90;;;;;;4973783;28;20062;-72
2022/09/08 11:51:35;;;;;;;2.63;1.63;;;17.90;99.90;;;;;;4973064;28;20070;-72
2022/09/08 11:54:22;;;;;;;;;;;17.90;99.90;;;;;;4973338;28;20055;-72
2022/09/08 11:57:06;;;;;;;3.65;1.45;;;17.80;99.90;;;;;;4972902;28;19922;-71
2022/09/08 11:59:40;;;;;;;2.85;1.55;;;17.90;99.90;;;;;;4972961;28;20062;-72
2022/09/08 12:02:22;;;;;;;2.20;1.70;;;17.90;99.90;;;;;;4972322;28;20069;-69
2022/09/08 12:05:18;;;;;;;2.20;2.00;;;17.90;99.90;;;;;;4977079;28;20043;-68
2022/09/08 12:08:19;;;;;;;4.30;2.13;;;18.00;99.90;;;;;;4959863;28;20380;-69
2022/09/08 12:11:10;;;;;;;2.40;1.85;;;18.00;99.90;;;;;;4976236;28;20054;-69
2022/09/08 12:13:54;;;;;;;3.35;2.25;;;18.00;99.90;;;;;;4976268;28;20086;-69
2022/09/08 12:16:41;;;;;;;3.10;2.42;;;18.10;99.90;;;;;;4976572;28;20055;-69
2022/09/08 12:19:44;;;;;;;6.05;2.92;;;18.20;99.90;;;;;;4976677;28;20069;-72
2022/09/08 12:22:31;;;;;;;3.17;2.42;;;18.20;99.90;;;;;;4976340;28;20078;-72
2022/09/08 12:25:24;;;;;;;3.28;2.45;;;18.10;99.90;;;;;;4976635;28;20047;-72
2022/09/08 12:28:11;;;;;;;2.65;2.30;;;18.10;99.90;;;;;;4976167;28;20451;-72
2022/09/08 12:31:03;;;;;;;2.63;2.42;;;18.20;99.90;;;;;;4975858;28;20489;-72
2022/09/08 12:33:58;;;;;;;3.95;2.20;;;18.30;99.90;;;;;;4975974;28;20101;-72
2022/09/08 12:36:38;;;;;;;2.80;2.55;;;18.20;99.90;;;;;;4923463;28;20066;-72
2022/09/08 12:39:25;;;;;;;3.55;2.50;;;18.20;99.90;;;;;;4975711;28;20634;-72
2022/09/08 12:42:21;;;;;;;3.25;2.30;;;18.30;99.90;;;;;;4974728;28;20622;-72
2022/09/08 12:44:53;;;;;;;3.30;2.30;;;18.30;99.90;;;;;;4975854;28;20462;-73
2022/09/08 12:47:18;;;;;;;5.22;2.00;;;18.30;99.90;;;;;;4976024;28;20055;-72
2022/09/08 12:50:00;;;;;;;1.90;1.80;;;18.30;99.90;;;;;;4976330;28;20527;-73
2022/09/08 12:52:54;;;;;;;2.30;2.10;;;18.40;99.90;;;;;;4976123;28;20069;-72
2022/09/08 12:55:30;;;;;;;4.85;2.20;;;18.30;99.90;;;;;;4975367;28;20417;-72
2022/09/08 12:58:01;;;;;;;3.95;1.98;;;18.30;99.90;;;;;;4976182;28;20070;-73
2022/09/08 13:00:38;;;;;;;4.57;2.22;;;18.30;99.90;;;;;;4975638;28;20086;-72
2022/09/08 13:03:22;;;;;;;3.42;2.42;;;18.20;99.90;;;;;;4976112;28;20046;-72
2022/09/08 13:06:01;;;;;;;3.75;2.58;;;18.20;99.90;;;;;;4975925;28;20105;-73
2022/09/08 13:08:53;;;;;;;3.50;1.98;;;18.20;99.90;;;;;;4975201;28;20050;-73
2022/09/08 13:11:40;;;;;;;3.17;2.10;;;18.20;99.90;;;;;;4975125;28;20050;-72
2022/09/08 13:14:11;;;;;;;2.85;2.58;;;18.20;99.90;;;;;;4974626;28;20078;-76
2022/09/08 13:17:07;;;;;;;4.65;2.95;;;18.20;99.90;;;;;;4975420;28;20086;-73
2022/09/08 13:19:47;;;;;;;3.08;2.78;;;18.10;99.90;;;;;;4975596;28;20093;-73
2022/09/08 13:22:42;;;;;;;2.33;2.13;;;18.20;99.90;;;;;;4975239;28;20054;-73